createdAt,value
2022-09-06T00:00:32.291Z,100715.00
2022-09-06T00:03:01.201Z,100718.00
2022-09-06T00:05:30.183Z,100725.00
2022-09-06T00:08:00.767Z,100718.00
2022-09-06T00:10:31.122Z,100715.00
2022-09-06T00:13:03.365Z,100703.00
2022-09-06T00:15:34.146Z,100712.00
2022-09-06T00:18:04.025Z,100711.00
2022-09-06T00:20:34.666Z,100706.00
2022-09-06T00:23:05.696Z,100708.00
2022-09-06T00:25:34.677Z,100707.00
2022-09-06T00:28:05.882Z,100707.00
2022-09-06T00:30:35.851Z,100704.00
2022-09-06T00:33:04.432Z,100699.00
2022-09-06T00:35:32.991Z,100705.00
2022-09-06T00:38:02.971Z,100697.00
2022-09-06T00:40:33.781Z,100704.00
2022-09-06T00:43:02.335Z,100712.00
2022-09-06T00:45:32.182Z,100707.00
2022-09-06T00:48:05.873Z,100706.00
2022-09-06T00:50:34.969Z,100699.00
2022-09-06T00:53:03.902Z,100698.00
2022-09-06T00:55:32.520Z,100702.00
2022-09-06T00:58:01.072Z,100711.00
2022-09-06T01:00:29.595Z,100698.00
2022-09-06T01:02:58.107Z,100704.00
2022-09-06T01:05:36.378Z,100702.00
2022-09-06T01:08:26.410Z,100699.00
2022-09-06T01:11:11.369Z,100696.00
2022-09-06T01:13:51.607Z,100700.00
2022-09-06T01:16:28.719Z,100699.00
2022-09-06T01:19:13.521Z,100693.00
2022-09-06T01:21:51.155Z,100697.00
2022-09-06T01:24:51.518Z,100695.00
2022-09-06T01:27:43.292Z,100701.00
2022-09-06T01:30:14.117Z,100697.00
2022-09-06T01:32:52.013Z,100700.00
2022-09-06T01:35:29.994Z,100714.00
2022-09-06T01:37:59.785Z,100700.00
2022-09-06T01:40:28.886Z,100695.00
2022-09-06T01:42:59.692Z,100697.00
2022-09-06T01:45:39.558Z,100696.00
2022-09-06T01:48:17.913Z,100693.00
2022-09-06T01:50:54.514Z,100691.00
2022-09-06T01:53:43.007Z,100695.00
2022-09-06T01:56:23.141Z,100690.00
2022-09-06T01:59:11.127Z,100701.00
2022-09-06T02:01:50.267Z,100698.00
2022-09-06T02:04:27.523Z,100704.00
2022-09-06T02:07:01.197Z,100701.00
2022-09-06T02:09:34.728Z,100702.00
2022-09-06T02:12:04.820Z,100698.00
2022-09-06T02:14:40.396Z,100709.00
2022-09-06T02:17:13.004Z,100713.00
2022-09-06T02:19:45.773Z,100712.00
2022-09-06T02:22:19.761Z,100713.00
2022-09-06T02:24:51.754Z,100708.00
2022-09-06T02:27:20.589Z,100701.00
2022-09-06T02:29:50.689Z,100702.00
2022-09-06T02:32:22.931Z,100699.00
2022-09-06T02:34:53.170Z,100702.00
2022-09-06T02:37:22.001Z,100700.00
2022-09-06T02:39:50.496Z,100702.00
2022-09-06T02:42:19.104Z,100699.00
2022-09-06T02:44:49.205Z,100707.00
2022-09-06T02:47:17.871Z,100699.00
2022-09-06T02:49:46.344Z,100700.00
2022-09-06T02:52:15.625Z,100695.00
2022-09-06T02:54:44.140Z,100697.00
2022-09-06T02:57:12.833Z,100696.00
2022-09-06T02:59:41.332Z,100687.00
2022-09-06T03:02:11.318Z,100689.00
2022-09-06T03:04:39.819Z,100691.00
2022-09-06T03:07:08.331Z,100689.00
2022-09-06T03:09:36.900Z,100688.00
2022-09-06T03:12:05.854Z,100681.00
2022-09-06T03:14:36.049Z,100687.00
2022-09-06T03:17:04.997Z,100685.00
2022-09-06T03:19:34.896Z,100687.00
2022-09-06T03:22:03.404Z,100693.00
2022-09-06T03:24:31.927Z,100686.00
2022-09-06T03:27:00.449Z,100682.00
2022-09-06T03:29:28.954Z,100675.00
2022-09-06T03:31:57.547Z,100682.00
2022-09-06T03:34:26.186Z,100673.00
2022-09-06T03:36:56.118Z,100665.00
2022-09-06T03:39:24.808Z,100676.00
2022-09-06T03:41:53.507Z,100677.00
2022-09-06T03:44:22.085Z,100681.00
2022-09-06T03:46:51.591Z,100674.00
2022-09-06T03:49:20.100Z,100672.00
2022-09-06T03:51:48.858Z,100667.00
2022-09-06T03:54:18.830Z,100657.00
2022-09-06T03:56:47.322Z,100656.00
2022-09-06T03:59:15.886Z,100650.00
2022-09-06T04:01:44.486Z,100656.00
2022-09-06T04:04:13.183Z,100654.00
2022-09-06T04:06:41.708Z,100651.00
2022-09-06T04:09:10.234Z,100658.00
2022-09-06T04:11:40.135Z,100655.00
2022-09-06T04:14:08.627Z,100656.00
2022-09-06T04:16:37.291Z,100649.00
2022-09-06T04:19:05.918Z,100650.00
2022-09-06T04:21:34.624Z,100646.00
2022-09-06T04:24:03.472Z,100649.00
2022-09-06T04:26:32.281Z,100646.00
2022-09-06T04:29:02.279Z,100639.00
2022-09-06T04:31:30.834Z,100645.00
2022-09-06T04:33:59.510Z,100642.00
2022-09-06T04:36:28.077Z,100642.00
2022-09-06T04:38:56.772Z,100634.00
2022-09-06T04:41:25.257Z,100635.00
2022-09-06T04:43:53.740Z,100630.00
2022-09-06T04:46:25.952Z,100630.00
2022-09-06T04:48:55.941Z,100636.00
2022-09-06T04:51:25.293Z,100634.00
2022-09-06T04:53:54.306Z,100639.00
2022-09-06T04:56:24.695Z,100632.00
2022-09-06T04:58:54.818Z,100624.00
2022-09-06T05:01:26.255Z,100632.00
2022-09-06T05:03:56.921Z,100632.00
2022-09-06T05:06:26.337Z,100636.00
2022-09-06T05:08:54.841Z,100629.00
2022-09-06T05:11:23.412Z,100629.00
2022-09-06T05:13:51.961Z,100632.00
2022-09-06T05:16:20.644Z,100631.00
2022-09-06T05:18:50.580Z,100632.00
2022-09-06T05:21:19.265Z,100630.00
2022-09-06T05:23:47.779Z,100635.00
2022-09-06T05:26:16.447Z,100634.00
2022-09-06T05:28:45.031Z,100638.00
2022-09-06T05:31:24.464Z,100633.00
2022-09-06T05:33:54.981Z,100630.00
2022-09-06T05:36:23.659Z,100635.00
2022-09-06T05:38:52.841Z,100630.00
2022-09-06T05:41:21.916Z,100635.00
2022-09-06T05:43:50.587Z,100635.00
2022-09-06T05:46:19.832Z,100638.00
2022-09-06T05:48:55.376Z,100643.00
2022-09-06T05:51:24.263Z,100642.00
2022-09-06T05:53:52.769Z,100643.00
2022-09-06T05:56:22.312Z,100642.00
2022-09-06T05:58:50.869Z,100642.00
2022-09-06T06:01:21.635Z,100645.00
2022-09-06T06:03:57.208Z,100645.00
2022-09-06T06:06:27.489Z,100645.00
2022-09-06T06:08:56.828Z,100643.00
2022-09-06T06:11:26.963Z,100640.00
2022-09-06T06:13:55.652Z,100635.00
2022-09-06T06:16:25.447Z,100642.00
2022-09-06T06:18:55.641Z,100648.00
2022-09-06T06:21:26.007Z,100647.00
2022-09-06T06:23:56.253Z,100645.00
2022-09-06T06:26:25.559Z,100637.00
2022-09-06T06:28:55.560Z,100633.00
2022-09-06T06:31:24.253Z,100632.00
2022-09-06T06:33:53.060Z,100637.00
2022-09-06T06:36:25.283Z,100642.00
2022-09-06T06:38:55.508Z,100649.00
2022-09-06T06:41:26.658Z,100640.00
2022-09-06T06:43:56.071Z,100645.00
2022-09-06T06:46:26.976Z,100641.00
2022-09-06T06:48:55.692Z,100643.00
2022-09-06T06:51:28.271Z,100642.00
2022-09-06T06:53:57.819Z,100639.00
2022-09-06T06:56:28.072Z,100631.00
2022-09-06T06:58:58.447Z,100632.00
2022-09-06T07:01:29.117Z,100634.00
2022-09-06T07:03:58.145Z,100642.00
2022-09-06T07:09:19.231Z,100637.00
2022-09-06T07:11:49.311Z,100636.00
2022-09-06T07:14:18.101Z,100634.00
2022-09-06T07:16:47.175Z,100626.00
2022-09-06T07:22:06.409Z,100640.00
2022-09-06T07:24:35.527Z,100635.00
2022-09-06T07:29:52.464Z,100633.00
2022-09-06T07:32:21.176Z,100641.00
2022-09-06T07:34:49.647Z,100640.00
2022-09-06T07:37:19.658Z,100637.00
2022-09-06T07:39:48.343Z,100644.00
2022-09-06T07:42:17.334Z,100641.00
2022-09-06T07:44:45.822Z,100650.00
2022-09-06T07:53:13.021Z,100649.00
2022-09-06T07:55:42.783Z,100652.00
2022-09-06T07:58:11.231Z,100652.00
2022-09-06T08:00:41.255Z,100658.00
2022-09-06T08:03:10.281Z,100656.00
2022-09-06T08:11:17.629Z,100655.00
2022-09-06T08:13:47.353Z,100654.00
2022-09-06T08:16:17.009Z,100650.00
2022-09-06T08:18:45.550Z,100648.00
2022-09-06T08:21:15.655Z,100649.00
2022-09-06T08:23:48.141Z,100649.00
2022-09-06T08:26:16.931Z,100651.00
2022-09-06T08:28:45.689Z,100652.00
2022-09-06T08:31:16.000Z,100651.00
2022-09-06T08:33:45.545Z,100656.00
2022-09-06T08:36:14.608Z,100650.00
2022-09-06T08:38:44.718Z,100660.00
2022-09-06T08:41:24.543Z,100649.00
2022-09-06T08:46:53.793Z,100643.00
2022-09-06T08:49:22.647Z,100654.00
2022-09-06T08:52:24.695Z,100640.00
2022-09-06T08:55:06.269Z,100642.00
2022-09-06T08:57:52.973Z,100629.00
2022-09-06T09:00:23.152Z,100624.00
2022-09-06T09:02:56.175Z,100622.00
2022-09-06T09:05:27.691Z,100618.00
2022-09-06T09:08:06.422Z,100611.00
2022-09-06T09:10:43.463Z,100614.00
2022-09-06T09:13:21.641Z,100613.00
2022-09-06T09:15:50.238Z,100609.00
2022-09-06T09:18:24.594Z,100610.00
2022-09-06T09:20:53.541Z,100605.00
2022-09-06T09:23:22.030Z,100610.00
2022-09-06T09:25:53.750Z,100610.00
2022-09-06T09:28:24.643Z,100602.00
2022-09-06T09:30:55.077Z,100600.00
2022-09-06T09:33:27.794Z,100606.00
2022-09-06T09:35:57.393Z,100597.00
2022-09-06T09:38:29.019Z,100598.00
2022-09-06T09:41:01.446Z,100593.00
2022-09-06T09:43:32.988Z,100587.00
2022-09-06T09:46:13.577Z,100591.00
2022-09-06T09:48:44.459Z,100579.00
2022-09-06T09:51:26.726Z,100580.00
2022-09-06T09:53:57.616Z,100575.00
2022-09-06T09:56:36.788Z,100566.00
2022-09-06T09:59:16.338Z,100565.00
2022-09-06T10:01:44.845Z,100556.00
2022-09-06T10:07:12.564Z,100568.00
2022-09-06T10:09:43.848Z,100563.00
2022-09-06T10:12:19.442Z,100565.00
2022-09-06T10:14:50.019Z,100564.00
2022-09-06T10:17:28.873Z,100558.00
2022-09-06T10:19:58.384Z,100563.00
2022-09-06T10:22:31.464Z,100565.00
2022-09-06T10:25:19.833Z,100564.00
2022-09-06T10:28:11.428Z,100552.00
2022-09-06T10:30:53.033Z,100549.00
2022-09-06T10:33:31.971Z,100546.00
2022-09-06T10:36:03.078Z,100555.00
2022-09-06T10:38:42.788Z,100544.00
2022-09-06T10:41:33.154Z,100546.00
2022-09-06T10:44:13.700Z,100537.00
2022-09-06T10:46:44.969Z,100537.00
2022-09-06T10:49:18.838Z,100538.00
2022-09-06T10:51:50.717Z,100531.00
2022-09-06T10:54:22.156Z,100529.00
2022-09-06T10:56:56.180Z,100531.00
2022-09-06T10:59:38.068Z,100532.00
2022-09-06T11:02:17.744Z,100518.00
2022-09-06T11:07:42.741Z,100504.00
2022-09-06T11:10:17.513Z,100514.00
2022-09-06T11:12:50.944Z,100508.00
2022-09-06T11:15:23.060Z,100515.00
2022-09-06T11:17:56.547Z,100504.00
2022-09-06T11:20:32.185Z,100506.00
2022-09-06T11:23:29.055Z,100512.00
2022-09-06T11:26:11.852Z,100511.00
2022-09-06T11:28:44.718Z,100514.00
2022-09-06T11:34:23.307Z,100508.00
2022-09-06T11:36:53.714Z,100509.00
2022-09-06T11:43:03.090Z,100502.00
2022-09-06T11:45:44.205Z,100503.00
2022-09-06T11:49:03.882Z,100499.00
2022-09-06T11:51:36.579Z,100507.00
2022-09-06T11:54:25.219Z,100502.00
2022-09-06T11:56:58.697Z,100500.00
2022-09-06T11:59:43.195Z,100504.00
2022-09-06T12:02:31.731Z,100493.00
2022-09-06T12:05:18.124Z,100489.00
2022-09-06T12:08:29.619Z,100485.00
2022-09-06T12:11:22.348Z,100481.00
2022-09-06T12:13:55.953Z,100474.00
2022-09-06T12:16:25.126Z,100472.00
2022-09-06T12:19:01.418Z,100472.00
2022-09-06T12:21:41.929Z,100469.00
2022-09-06T12:24:31.404Z,100474.00
2022-09-06T12:27:15.698Z,100469.00
2022-09-06T12:29:54.959Z,100472.00
2022-09-06T12:32:36.633Z,100468.00
2022-09-06T12:38:00.527Z,100472.00
2022-09-06T12:40:32.471Z,100468.00
2022-09-06T12:43:04.903Z,100454.00
2022-09-06T12:45:33.769Z,100453.00
2022-09-06T12:48:08.598Z,100458.00
2022-09-06T12:50:37.514Z,100462.00
2022-09-06T12:53:23.394Z,100464.00
2022-09-06T12:56:05.436Z,100460.00
2022-09-06T12:58:35.922Z,100453.00
2022-09-06T13:01:12.406Z,100458.00
2022-09-06T13:03:45.362Z,100463.00
2022-09-06T13:06:22.229Z,100456.00
2022-09-06T13:08:57.073Z,100464.00
2022-09-06T13:11:31.560Z,100464.00
2022-09-06T13:14:03.927Z,100455.00
2022-09-06T13:16:38.020Z,100455.00
2022-09-06T13:19:14.153Z,100457.00
2022-09-06T13:21:44.368Z,100448.00
2022-09-06T13:24:25.070Z,100449.00
2022-09-06T13:26:54.369Z,100453.00
2022-09-06T13:29:31.446Z,100458.00
2022-09-06T13:32:02.328Z,100452.00
2022-09-06T13:34:32.849Z,100467.00
2022-09-06T13:37:04.930Z,100458.00
2022-09-06T13:39:37.472Z,100484.00
2022-09-06T13:42:08.590Z,100505.00
2022-09-06T13:44:39.976Z,100504.00
2022-09-06T13:47:08.693Z,100512.00
2022-09-06T13:49:37.168Z,100517.00
2022-09-06T13:52:07.257Z,100528.00
2022-09-06T13:54:36.662Z,100541.00
2022-09-06T13:57:05.323Z,100545.00
2022-09-06T13:59:33.846Z,100557.00
2022-09-06T14:02:07.677Z,100570.00
2022-09-06T14:04:36.672Z,100574.00
2022-09-06T14:07:05.750Z,100574.00
2022-09-06T14:09:34.330Z,100567.00
2022-09-06T14:12:03.307Z,100562.00
2022-09-06T14:14:31.994Z,100561.00
2022-09-06T14:17:00.701Z,100547.00
2022-09-06T14:19:30.715Z,100557.00
2022-09-06T14:21:59.324Z,100552.00
2022-09-06T14:24:27.853Z,100559.00
2022-09-06T14:26:56.463Z,100551.00
2022-09-06T14:29:25.005Z,100549.00
2022-09-06T14:31:53.604Z,100531.00
2022-09-06T14:34:22.190Z,100530.00
2022-09-06T14:36:52.413Z,100532.00
2022-09-06T14:39:21.120Z,100525.00
2022-09-06T14:41:50.552Z,100526.00
2022-09-06T14:44:19.123Z,100521.00
2022-09-06T14:46:49.090Z,100519.00
2022-09-06T14:49:17.722Z,100513.00
2022-09-06T14:51:46.270Z,100506.00
2022-09-06T14:54:16.850Z,100500.00
2022-09-06T14:56:45.678Z,100502.00
2022-09-06T14:59:14.578Z,100492.00
2022-09-06T15:01:43.437Z,100480.00
2022-09-06T15:04:13.429Z,100483.00
2022-09-06T15:06:47.249Z,100479.00
2022-09-06T15:09:17.904Z,100478.00
2022-09-06T15:11:48.743Z,100472.00
2022-09-06T15:14:18.848Z,100476.00
2022-09-06T15:16:53.333Z,100462.00
2022-09-06T15:19:24.622Z,100456.00
2022-09-06T15:21:53.387Z,100459.00
2022-09-06T15:24:23.460Z,100453.00
2022-09-06T15:26:52.228Z,100450.00
2022-09-06T15:29:21.418Z,100456.00
2022-09-06T15:31:51.845Z,100457.00
2022-09-06T15:34:21.703Z,100453.00
2022-09-06T15:36:50.558Z,100449.00
2022-09-06T15:39:19.943Z,100442.00
2022-09-06T15:41:51.923Z,100460.00
2022-09-06T15:44:21.930Z,100450.00
2022-09-06T15:46:54.286Z,100453.00
2022-09-06T15:49:28.569Z,100451.00
2022-09-06T15:51:58.204Z,100445.00
2022-09-06T15:54:41.025Z,100440.00
2022-09-06T15:57:11.447Z,100446.00
2022-09-06T15:59:41.579Z,100436.00
2022-09-06T16:02:10.657Z,100441.00
2022-09-06T16:04:39.311Z,100439.00
2022-09-06T16:07:08.051Z,100441.00
2022-09-06T16:09:36.605Z,100443.00
2022-09-06T16:12:05.773Z,100437.00
2022-09-06T16:14:35.857Z,100439.00
2022-09-06T16:17:04.562Z,100434.00
2022-09-06T16:19:33.197Z,100439.00
2022-09-06T16:22:02.818Z,100438.00
2022-09-06T16:24:31.466Z,100439.00
2022-09-06T16:27:00.612Z,100440.00
2022-09-06T16:29:29.276Z,100447.00
2022-09-06T16:32:00.706Z,100448.00
2022-09-06T16:34:29.327Z,100444.00
2022-09-06T16:36:57.913Z,100426.00
2022-09-06T16:39:26.549Z,100427.00
2022-09-06T16:41:55.393Z,100421.00
2022-09-06T16:44:24.011Z,100427.00
2022-09-06T16:46:53.718Z,100430.00
2022-09-06T16:49:24.196Z,100428.00
2022-09-06T16:51:52.752Z,100429.00
2022-09-06T16:54:21.669Z,100420.00
2022-09-06T16:56:50.438Z,100424.00
2022-09-06T16:59:19.047Z,100427.00
2022-09-06T17:01:47.817Z,100429.00
2022-09-06T17:04:16.802Z,100421.00
2022-09-06T17:06:47.085Z,100419.00
2022-09-06T17:09:18.623Z,100425.00
2022-09-06T17:11:49.827Z,100420.00
2022-09-06T17:14:18.625Z,100418.00
2022-09-06T17:17:04.545Z,100419.00
2022-09-06T17:19:35.766Z,100411.00
2022-09-06T17:22:06.383Z,100420.00
2022-09-06T17:24:35.045Z,100410.00
2022-09-06T17:27:03.638Z,100415.00
2022-09-06T17:29:32.623Z,100414.00
2022-09-06T17:32:02.144Z,100414.00
2022-09-06T17:34:30.833Z,100412.00
2022-09-06T17:36:59.411Z,100411.00
2022-09-06T17:39:29.431Z,100411.00
2022-09-06T17:41:58.232Z,100411.00
2022-09-06T17:44:28.162Z,100407.00
2022-09-06T17:47:11.916Z,100419.00
2022-09-06T17:49:41.318Z,100417.00
2022-09-06T17:52:10.094Z,100419.00
2022-09-06T17:54:40.077Z,100423.00
2022-09-06T17:57:08.705Z,100429.00
2022-09-06T17:59:38.521Z,100422.00
2022-09-06T18:02:09.910Z,100427.00
2022-09-06T18:04:38.638Z,100421.00
2022-09-06T18:07:07.396Z,100427.00
2022-09-06T18:09:37.036Z,100420.00
2022-09-06T18:12:07.896Z,100425.00
2022-09-06T18:14:36.894Z,100424.00
2022-09-06T18:17:05.605Z,100429.00
2022-09-06T18:19:34.127Z,100423.00
2022-09-06T18:22:02.717Z,100423.00
2022-09-06T18:24:31.306Z,100428.00
2022-09-06T18:27:02.745Z,100425.00
2022-09-06T18:29:33.038Z,100423.00
2022-09-06T18:32:01.696Z,100418.00
2022-09-06T18:34:30.328Z,100411.00
2022-09-06T18:36:58.877Z,100405.00
2022-09-06T18:39:27.633Z,100405.00
2022-09-06T18:42:03.875Z,100408.00
2022-09-06T18:44:35.296Z,100401.00
2022-09-06T18:47:05.517Z,100408.00
2022-09-06T18:49:34.916Z,100411.00
2022-09-06T18:52:06.628Z,100402.00
2022-09-06T18:54:35.840Z,100414.00
2022-09-06T18:57:04.508Z,100410.00
2022-09-06T18:59:34.457Z,100414.00
2022-09-06T19:02:03.080Z,100422.00
2022-09-06T19:04:32.089Z,100425.00
2022-09-06T19:07:03.868Z,100417.00
2022-09-06T19:09:32.675Z,100417.00
2022-09-06T19:12:01.284Z,100412.00
2022-09-06T19:14:29.829Z,100423.00
2022-09-06T19:16:59.723Z,100418.00
2022-09-06T19:19:28.324Z,100415.00
2022-09-06T19:21:56.904Z,100418.00
2022-09-06T19:24:25.681Z,100410.00
2022-09-06T19:26:55.260Z,100418.00
2022-09-06T19:29:24.057Z,100416.00
2022-09-06T19:31:52.996Z,100412.00
2022-09-06T19:34:26.086Z,100414.00
2022-09-06T19:36:55.321Z,100412.00
2022-09-06T19:39:31.147Z,100421.00
2022-09-06T19:42:02.315Z,100418.00
2022-09-06T19:44:31.072Z,100418.00
2022-09-06T19:47:00.390Z,100412.00
2022-09-06T19:49:30.903Z,100418.00
2022-09-06T19:51:59.527Z,100407.00
2022-09-06T19:54:28.610Z,100413.00
2022-09-06T19:56:57.195Z,100399.00
2022-09-06T19:59:26.001Z,100395.00
2022-09-06T20:01:54.942Z,100391.00
2022-09-06T20:04:24.100Z,100388.00
2022-09-06T20:06:59.587Z,100388.00
2022-09-06T20:09:28.663Z,100387.00
2022-09-06T20:11:57.242Z,100380.00
2022-09-06T20:14:26.432Z,100380.00
2022-09-06T20:16:58.130Z,100387.00
2022-09-06T20:19:31.876Z,100374.00
2022-09-06T20:22:01.857Z,100381.00
2022-09-06T20:24:30.565Z,100381.00
2022-09-06T20:26:59.178Z,100382.00
2022-09-06T20:29:30.196Z,100383.00
2022-09-06T20:31:59.010Z,100372.00
2022-09-06T20:34:27.720Z,100369.00
2022-09-06T20:36:56.346Z,100373.00
2022-09-06T20:39:26.491Z,100367.00
2022-09-06T20:41:55.135Z,100361.00
2022-09-06T20:44:23.687Z,100361.00
2022-09-06T20:46:52.704Z,100363.00
2022-09-06T20:49:23.094Z,100364.00
2022-09-06T20:51:54.851Z,100358.00
2022-09-06T20:54:23.477Z,100349.00
2022-09-06T20:56:53.759Z,100351.00
2022-09-06T20:59:22.542Z,100347.00
2022-09-06T21:01:51.247Z,100345.00
2022-09-06T21:04:19.963Z,100348.00
2022-09-06T21:06:51.007Z,100336.00
2022-09-06T21:09:20.005Z,100331.00
2022-09-06T21:11:48.702Z,100319.00
2022-09-06T21:14:18.807Z,100319.00
2022-09-06T21:16:47.497Z,100312.00
2022-09-06T21:19:16.444Z,100312.00
2022-09-06T21:21:45.102Z,100310.00
2022-09-06T21:24:16.796Z,100311.00
2022-09-06T21:26:45.679Z,100302.00
2022-09-06T21:29:14.427Z,100307.00
2022-09-06T21:31:45.263Z,100302.00
2022-09-06T21:34:16.932Z,100311.00
2022-09-06T21:36:46.114Z,100300.00
2022-09-06T21:39:16.157Z,100307.00
2022-09-06T21:41:45.836Z,100312.00
2022-09-06T21:44:14.680Z,100306.00
2022-09-06T21:46:44.921Z,100308.00
2022-09-06T21:49:15.152Z,100304.00
2022-09-06T21:51:43.771Z,100297.00
2022-09-06T21:54:12.710Z,100292.00
2022-09-06T21:56:41.771Z,100301.00
2022-09-06T21:59:11.214Z,100295.00
2022-09-06T22:01:41.020Z,100291.00
2022-09-06T22:04:11.670Z,100288.00
2022-09-06T22:06:40.789Z,100288.00
2022-09-06T22:09:11.548Z,100286.00
2022-09-06T22:11:41.675Z,100282.00
2022-09-06T22:14:12.809Z,100282.00
2022-09-06T22:16:42.643Z,100281.00
2022-09-06T22:19:13.181Z,100282.00
2022-09-06T22:21:42.106Z,100280.00
2022-09-06T22:24:12.615Z,100286.00
2022-09-06T22:26:42.268Z,100288.00
2022-09-06T22:29:13.634Z,100289.00
2022-09-06T22:31:42.823Z,100288.00
2022-09-06T22:34:13.263Z,100289.00
2022-09-06T22:36:42.760Z,100287.00
2022-09-06T22:39:11.591Z,100290.00
2022-09-06T22:41:40.224Z,100287.00
2022-09-06T22:44:08.913Z,100281.00
2022-09-06T22:46:38.458Z,100278.00
2022-09-06T22:49:07.297Z,100275.00
2022-09-06T22:51:37.341Z,100276.00
2022-09-06T22:54:06.335Z,100282.00
2022-09-06T22:56:35.796Z,100285.00
2022-09-06T22:59:04.647Z,100286.00
2022-09-06T23:01:38.660Z,100283.00
2022-09-06T23:04:08.372Z,100283.00
2022-09-06T23:06:38.820Z,100278.00
2022-09-06T23:09:07.835Z,100283.00
2022-09-06T23:11:36.476Z,100279.00
2022-09-06T23:14:05.986Z,100282.00
2022-09-06T23:16:34.711Z,100277.00
2022-09-06T23:19:03.370Z,100282.00
2022-09-06T23:21:32.448Z,100278.00
2022-09-06T23:24:02.599Z,100278.00
2022-09-06T23:26:33.515Z,100271.00
2022-09-06T23:29:02.210Z,100268.00
2022-09-06T23:31:32.686Z,100272.00
2022-09-06T23:34:02.428Z,100261.00
2022-09-06T23:36:31.469Z,100257.00
2022-09-06T23:39:02.583Z,100254.00
2022-09-06T23:41:31.773Z,100254.00
2022-09-06T23:44:00.766Z,100254.00
2022-09-06T23:46:29.463Z,100250.00
2022-09-06T23:49:01.091Z,100256.00
2022-09-06T23:51:29.689Z,100247.00
2022-09-06T23:53:58.400Z,100250.00
2022-09-06T23:56:28.361Z,100232.00
2022-09-06T23:58:57.124Z,100238.00
